Time;durP1;ratioP1;P1;durP2;ratioP2;P2;SDS_P1;SDS_P2;PMS_P1;PMS_P2;Temp;Humidity;BMP_temperature;BMP_pressure;BME280_temperature;BME280_humidity;BME280_pressure;Samples;Min_cycle;Max_cycle;Signal;HPM_P1;HPM_P2
2022/03/13 00:02:07;;;;;;;28.10;16.27;;;3.50;79.10;;;;;;5091927;28;20219;-78
2022/03/13 00:04:37;;;;;;;31.92;16.98;;;3.60;79.20;;;;;;5091766;28;20308;-79
2022/03/13 00:07:18;;;;;;;30.20;15.98;;;3.60;80.60;;;;;;5090621;28;20193;-78
2022/03/13 00:09:45;;;;;;;27.98;15.95;;;3.60;80.90;;;;;;5089811;28;20704;-80
2022/03/13 00:12:14;;;;;;;29.53;18.43;;;3.60;81.80;;;;;;5090196;28;20304;-78
2022/03/13 00:14:43;;;;;;;31.03;17.23;;;3.70;81.40;;;;;;5092631;28;20801;-79
2022/03/13 00:17:11;;;;;;;26.40;15.07;;;3.60;82.60;;;;;;5090983;28;20457;-79
2022/03/13 00:19:38;;;;;;;28.70;16.20;;;3.50;82.60;;;;;;5089801;28;20432;-80
2022/03/13 00:22:05;;;;;;;25.48;15.38;;;3.40;82.00;;;;;;5091626;28;20439;-80
2022/03/13 00:24:32;;;;;;;30.97;17.37;;;3.50;82.40;;;;;;5090456;28;20569;-79
2022/03/13 00:27:00;;;;;;;24.77;12.80;;;3.50;83.10;;;;;;5089786;28;20954;-80
2022/03/13 00:29:26;;;;;;;24.83;13.93;;;3.40;81.40;;;;;;5072945;28;20570;-80
2022/03/13 00:31:52;;;;;;;23.60;13.83;;;3.40;80.80;;;;;;5056327;28;20212;-80
2022/03/13 00:34:18;;;;;;;56.93;26.50;;;3.30;79.60;;;;;;5073416;28;20462;-81
2022/03/13 00:36:43;;;;;;;45.57;22.20;;;3.30;81.70;;;;;;5089464;28;20507;-81
2022/03/13 00:39:10;;;;;;;47.20;22.70;;;3.30;81.90;;;;;;5055837;28;20465;-79
2022/03/13 00:41:37;;;;;;;34.05;18.33;;;3.20;83.20;;;;;;5089061;28;20198;-80
2022/03/13 00:44:02;;;;;;;30.73;15.63;;;3.10;82.70;;;;;;5073377;28;20569;-80
2022/03/13 00:46:29;;;;;;;24.20;11.77;;;3.10;82.60;;;;;;5056859;28;20420;-80
2022/03/13 00:48:54;;;;;;;23.10;12.87;;;3.00;80.50;;;;;;5094976;28;20852;-82
2022/03/13 00:51:20;;;;;;;18.43;11.40;;;3.10;77.90;;;;;;5077350;28;20516;-80
2022/03/13 00:53:45;;;;;;;19.80;11.63;;;3.00;76.80;;;;;;5076505;28;20223;-80
2022/03/13 00:56:11;;;;;;;17.83;10.20;;;3.00;76.70;;;;;;5092296;28;20565;-80
2022/03/13 00:58:41;;;;;;;15.60;10.27;;;3.10;73.50;;;;;;5093283;28;20740;-80
2022/03/13 01:01:10;;;;;;;18.77;11.20;;;3.20;72.50;;;;;;5094811;28;20172;-81
2022/03/13 01:03:35;;;;;;;17.40;9.40;;;3.30;73.90;;;;;;5092770;28;20663;-80
2022/03/13 01:06:02;;;;;;;14.63;9.40;;;3.20;73.90;;;;;;5092708;28;20417;-80
2022/03/13 01:08:28;;;;;;;15.50;9.45;;;3.10;74.70;;;;;;5092329;28;20178;-81
2022/03/13 01:10:54;;;;;;;18.80;11.10;;;3.10;73.90;;;;;;5092944;28;20196;-79
2022/03/13 01:13:21;;;;;;;13.90;9.05;;;3.10;73.50;;;;;;5092772;28;20208;-80
2022/03/13 01:15:48;;;;;;;14.50;8.23;;;3.10;73.80;;;;;;5092110;28;20182;-81
2022/03/13 01:18:15;;;;;;;11.38;8.15;;;3.00;73.60;;;;;;5092071;28;20211;-81
2022/03/13 01:20:41;;;;;;;13.25;8.85;;;3.00;73.20;;;;;;5092496;28;20797;-80
2022/03/13 01:23:11;;;;;;;13.43;8.00;;;3.00;73.60;;;;;;5094372;28;20569;-80
2022/03/13 01:25:37;;;;;;;10.38;7.07;;;2.80;74.20;;;;;;5092771;28;20784;-81
2022/03/13 01:28:04;;;;;;;14.27;7.75;;;2.70;74.30;;;;;;5076066;28;20196;-81
2022/03/13 01:30:29;;;;;;;9.20;6.80;;;2.60;74.80;;;;;;5094756;28;20211;-81
2022/03/13 01:32:55;;;;;;;11.03;7.20;;;2.60;73.40;;;;;;5094408;28;20213;-81
2022/03/13 01:35:22;;;;;;;10.83;7.27;;;2.60;73.00;;;;;;5094226;28;20424;-79
2022/03/13 01:37:48;;;;;;;11.30;7.05;;;2.60;70.70;;;;;;5093377;28;20194;-79
2022/03/13 01:40:21;;;;;;;10.93;6.90;;;2.70;68.50;;;;;;5094051;28;20215;-78
2022/03/13 01:42:48;;;;;;;8.25;6.10;;;2.80;69.10;;;;;;5094949;28;20449;-79
2022/03/13 01:45:16;;;;;;;16.27;6.97;;;2.90;67.50;;;;;;5095122;28;20554;-80
2022/03/13 01:47:43;;;;;;;10.55;7.50;;;3.00;68.60;;;;;;5093191;28;20207;-79
2022/03/13 01:50:10;;;;;;;12.60;6.90;;;2.90;70.20;;;;;;5092898;28;20753;-79
2022/03/13 01:52:38;;;;;;;9.00;6.40;;;2.90;70.20;;;;;;5094285;28;20525;-79
2022/03/13 01:55:05;;;;;;;9.97;6.90;;;2.80;69.90;;;;;;5093654;28;20266;-79
2022/03/13 01:57:32;;;;;;;11.57;7.03;;;2.80;70.30;;;;;;5094568;28;20521;-79
2022/03/13 01:59:59;;;;;;;12.57;7.40;;;2.80;69.40;;;;;;5092597;28;20650;-80
2022/03/13 02:02:28;;;;;;;10.98;6.60;;;2.60;69.70;;;;;;5076608;28;20308;-80
2022/03/13 02:04:56;;;;;;;13.40;7.03;;;2.50;70.00;;;;;;5092923;28;20672;-80
2022/03/13 02:07:23;;;;;;;10.93;6.75;;;2.50;70.20;;;;;;5075845;28;20191;-81
2022/03/13 02:09:49;;;;;;;15.95;6.95;;;2.50;71.40;;;;;;5075113;28;20600;-80
2022/03/13 02:12:20;;;;;;;15.30;7.20;;;2.60;71.20;;;;;;5074902;28;20255;-80
2022/03/13 02:14:48;;;;;;;14.15;7.25;;;2.60;70.00;;;;;;5075534;28;20192;-79
2022/03/13 02:17:24;;;;;;;11.68;6.75;;;2.60;68.90;;;;;;5091936;28;20212;-80
2022/03/13 02:19:51;;;;;;;9.60;7.57;;;2.70;67.70;;;;;;5091810;28;20605;-80
2022/03/13 02:22:18;;;;;;;10.57;6.97;;;2.90;67.90;;;;;;5092019;28;20203;-78
2022/03/13 02:24:53;;;;;;;9.75;7.35;;;2.80;67.20;;;;;;5091480;28;20184;-79
2022/03/13 02:27:25;;;;;;;9.93;6.25;;;2.80;68.70;;;;;;5091622;28;20183;-79
2022/03/13 02:29:51;;;;;;;9.40;6.05;;;2.90;68.20;;;;;;5091465;28;20213;-80
2022/03/13 02:32:18;;;;;;;10.30;6.50;;;3.10;66.40;;;;;;5092979;28;20203;-80
2022/03/13 02:34:46;;;;;;;8.90;7.17;;;3.10;65.20;;;;;;5091106;28;20419;-79
2022/03/13 02:37:34;;;;;;;9.43;6.53;;;3.10;63.50;;;;;;5092710;28;20929;-80
2022/03/13 02:40:00;;;;;;;9.80;6.40;;;3.30;61.80;;;;;;5092276;28;20430;-80
2022/03/13 02:42:25;;;;;;;17.27;7.80;;;3.40;60.80;;;;;;5074664;28;20556;-79
2022/03/13 02:44:51;;;;;;;10.80;6.80;;;3.60;61.30;;;;;;5074433;28;20186;-80
2022/03/13 02:47:17;;;;;;;11.73;6.73;;;3.50;62.90;;;;;;5091257;28;20182;-81
2022/03/13 02:49:42;;;;;;;12.93;7.07;;;3.50;62.70;;;;;;5074046;28;20597;-81
2022/03/13 02:52:08;;;;;;;10.63;6.90;;;3.40;63.70;;;;;;5074329;28;20240;-81
2022/03/13 02:54:34;;;;;;;11.90;7.07;;;3.30;64.30;;;;;;5074724;28;20521;-79
2022/03/13 02:57:00;;;;;;;15.93;7.13;;;3.50;64.80;;;;;;5093409;28;20208;-80
2022/03/13 02:59:27;;;;;;;14.30;7.80;;;3.30;64.00;;;;;;5092951;28;20531;-78
2022/03/13 03:01:53;;;;;;;12.93;6.13;;;3.30;65.90;;;;;;5093894;28;20440;-80
2022/03/13 03:04:22;;;;;;;10.13;7.68;;;3.40;63.90;;;;;;5092044;28;20197;-80
2022/03/13 03:07:00;;;;;;;13.83;7.17;;;3.60;65.30;;;;;;5091743;28;20186;-78
2022/03/13 03:09:30;;;;;;;11.80;8.07;;;3.50;63.20;;;;;;5080225;28;20518;-80
2022/03/13 03:11:57;;;;;;;10.43;7.20;;;3.50;61.20;;;;;;5090346;28;21040;-80
2022/03/13 03:14:23;;;;;;;11.00;7.22;;;3.50;62.20;;;;;;5092536;28;20409;-79
2022/03/13 03:16:49;;;;;;;11.67;8.00;;;3.60;62.80;;;;;;5091377;28;20203;-81
2022/03/13 03:19:15;;;;;;;13.37;8.27;;;3.20;66.90;;;;;;5074067;28;20438;-81
2022/03/13 03:21:41;;;;;;;11.47;6.97;;;2.90;70.00;;;;;;5091374;28;20507;-80
2022/03/13 03:24:17;;;;;;;13.00;8.47;;;2.80;73.00;;;;;;5090199;28;20798;-79
2022/03/13 03:26:43;;;;;;;13.23;7.07;;;2.70;73.70;;;;;;5089916;28;20421;-79
2022/03/13 03:29:09;;;;;;;14.27;8.80;;;2.60;73.70;;;;;;5089056;28;20214;-79
2022/03/13 03:31:41;;;;;;;12.67;7.50;;;2.60;73.60;;;;;;5089676;28;20179;-81
2022/03/13 03:34:10;;;;;;;13.63;7.90;;;2.70;74.90;;;;;;5089811;28;20422;-81
2022/03/13 03:36:42;;;;;;;16.02;8.10;;;2.50;75.30;;;;;;5090869;28;20615;-81
2022/03/13 03:39:09;;;;;;;12.23;7.55;;;2.50;75.70;;;;;;5074447;28;20801;-79
2022/03/13 03:41:35;;;;;;;16.95;8.13;;;2.40;76.40;;;;;;5091494;28;20194;-78
2022/03/13 03:44:01;;;;;;;10.13;7.25;;;2.20;77.60;;;;;;5073573;28;20191;-79
2022/03/13 03:46:27;;;;;;;11.10;7.30;;;2.20;77.30;;;;;;5090351;28;20188;-80
2022/03/13 03:48:52;;;;;;;15.80;7.80;;;2.10;78.70;;;;;;5090795;28;20816;-80
2022/03/13 03:51:18;;;;;;;11.77;7.63;;;2.10;79.00;;;;;;5090196;28;20419;-79
2022/03/13 03:53:43;;;;;;;12.70;8.63;;;2.10;78.90;;;;;;5073356;28;20672;-80
2022/03/13 03:56:09;;;;;;;14.50;8.40;;;2.10;78.70;;;;;;5091559;28;20175;-80
2022/03/13 03:58:35;;;;;;;13.20;8.10;;;2.10;78.70;;;;;;5091529;28;20234;-80
2022/03/13 04:01:00;;;;;;;13.67;8.70;;;2.20;77.80;;;;;;5073153;28;20350;-80
2022/03/13 04:03:26;;;;;;;15.30;8.23;;;2.50;73.50;;;;;;5077875;28;20199;-79
2022/03/13 04:05:51;;;;;;;11.23;7.77;;;2.90;69.90;;;;;;5065505;28;20185;-81
2022/03/13 04:08:17;;;;;;;14.47;8.90;;;2.80;73.30;;;;;;5056997;28;20231;-76
2022/03/13 04:10:43;;;;;;;17.63;7.90;;;2.70;73.60;;;;;;5090479;28;20224;-76
2022/03/13 04:13:08;;;;;;;12.00;8.70;;;2.70;75.80;;;;;;5089361;28;20331;-79
2022/03/13 04:15:34;;;;;;;11.80;7.53;;;2.60;76.00;;;;;;5092052;28;20242;-77
2022/03/13 04:18:00;;;;;;;12.20;8.00;;;2.60;75.10;;;;;;5087961;28;20256;-77
2022/03/13 04:20:26;;;;;;;11.73;8.20;;;2.60;76.50;;;;;;5088265;28;20189;-76
2022/03/13 04:22:51;;;;;;;11.00;8.40;;;2.50;77.90;;;;;;5088427;28;20206;-78
2022/03/13 04:25:17;;;;;;;10.00;7.20;;;2.50;78.20;;;;;;5072802;28;20561;-74
2022/03/13 04:27:44;;;;;;;10.10;7.40;;;2.50;76.60;;;;;;5091042;28;20556;-76
2022/03/13 04:30:10;;;;;;;14.13;8.77;;;2.50;76.90;;;;;;5088317;28;20712;-74
2022/03/13 04:32:35;;;;;;;11.00;7.30;;;2.50;77.50;;;;;;5087357;28;20949;-75
2022/03/13 04:35:01;;;;;;;10.33;8.07;;;2.50;77.30;;;;;;5090598;28;20215;-77
2022/03/13 04:37:27;;;;;;;11.90;8.17;;;2.50;75.70;;;;;;5093432;28;20214;-77
2022/03/13 04:39:53;;;;;;;14.60;9.00;;;2.60;74.70;;;;;;5090016;28;20284;-78
2022/03/13 04:42:19;;;;;;;14.30;8.43;;;2.60;75.70;;;;;;5090338;28;20201;-78
2022/03/13 04:44:45;;;;;;;12.00;7.97;;;2.50;75.90;;;;;;5089616;28;20678;-78
2022/03/13 04:47:11;;;;;;;12.50;8.63;;;2.40;77.50;;;;;;5087949;28;20423;-76
2022/03/13 04:49:37;;;;;;;13.30;8.50;;;2.30;78.40;;;;;;5088463;28;20780;-77
2022/03/13 04:52:04;;;;;;;16.27;9.00;;;2.20;78.80;;;;;;5088575;28;20202;-76
2022/03/13 04:54:30;;;;;;;13.50;8.53;;;2.20;78.50;;;;;;5091643;28;20418;-82
2022/03/13 04:56:57;;;;;;;14.40;9.20;;;2.20;77.50;;;;;;5091653;28;20438;-77
2022/03/13 04:59:22;;;;;;;11.20;8.27;;;2.20;76.90;;;;;;5087830;28;20933;-78
2022/03/13 05:01:48;;;;;;;14.40;9.10;;;2.20;79.00;;;;;;5087370;28;20206;-79
2022/03/13 05:04:14;;;;;;;14.60;9.10;;;2.10;79.70;;;;;;5071837;28;21010;-76
2022/03/13 05:06:43;;;;;;;17.30;7.87;;;2.10;79.90;;;;;;5087362;28;20221;-77
2022/03/13 05:09:08;;;;;;;17.65;8.95;;;2.10;80.10;;;;;;5088504;28;20472;-76
2022/03/13 05:11:34;;;;;;;11.97;7.80;;;2.10;80.10;;;;;;5086991;28;20191;-78
2022/03/13 05:14:00;;;;;;;18.97;8.10;;;2.00;80.10;;;;;;5086986;28;20176;-77
2022/03/13 05:16:26;;;;;;;13.67;8.90;;;2.00;79.70;;;;;;5086999;28;20517;-78
2022/03/13 05:18:51;;;;;;;14.30;8.13;;;2.00;79.40;;;;;;5088426;28;20184;-78
2022/03/13 05:21:18;;;;;;;12.73;7.83;;;2.10;78.70;;;;;;5092129;28;20179;-78
2022/03/13 05:23:44;;;;;;;11.45;8.27;;;2.00;77.80;;;;;;5088694;28;20207;-78
2022/03/13 05:26:09;;;;;;;16.63;9.30;;;2.10;78.40;;;;;;5089910;28;20242;-76
2022/03/13 05:28:36;;;;;;;17.03;9.10;;;2.00;79.10;;;;;;5089315;28;20275;-79
2022/03/13 05:31:02;;;;;;;11.30;8.43;;;2.00;78.90;;;;;;5090993;28;20917;-79
2022/03/13 05:33:30;;;;;;;14.43;8.23;;;2.00;79.80;;;;;;5089637;28;20203;-78
2022/03/13 05:35:56;;;;;;;13.73;7.55;;;1.90;80.10;;;;;;5095309;28;20682;-81
2022/03/13 05:38:22;;;;;;;13.63;8.50;;;1.80;82.10;;;;;;5094290;28;20268;-81
2022/03/13 05:40:48;;;;;;;15.27;9.10;;;1.70;83.40;;;;;;5093293;28;20293;-83
2022/03/13 05:43:13;;;;;;;14.30;8.70;;;1.70;84.30;;;;;;5094950;28;20202;-81
2022/03/13 05:45:41;;;;;;;12.80;8.50;;;1.70;84.70;;;;;;5076777;28;20199;-78
2022/03/13 05:48:13;;;;;;;13.70;8.80;;;1.60;84.80;;;;;;5092835;28;20926;-78
2022/03/13 05:50:38;;;;;;;18.08;9.80;;;1.60;85.60;;;;;;5091378;28;20218;-77
2022/03/13 05:53:05;;;;;;;18.77;9.50;;;1.50;86.60;;;;;;5091093;28;20215;-77
2022/03/13 05:55:31;;;;;;;14.48;9.27;;;1.60;86.90;;;;;;5094872;28;20173;-79
2022/03/13 05:57:58;;;;;;;14.23;8.43;;;1.50;87.30;;;;;;5091489;28;20214;-78
2022/03/13 06:00:25;;;;;;;16.33;9.32;;;1.50;87.00;;;;;;5091343;28;20185;-78
2022/03/13 06:02:52;;;;;;;20.58;8.95;;;1.50;87.10;;;;;;5091337;28;20418;-78
2022/03/13 06:05:19;;;;;;;15.35;9.73;;;1.50;87.20;;;;;;5092294;28;20283;-77
2022/03/13 06:07:46;;;;;;;17.33;10.68;;;1.50;87.00;;;;;;5091979;28;20191;-76
2022/03/13 06:10:12;;;;;;;15.05;9.18;;;1.50;86.80;;;;;;5091397;28;20207;-76
2022/03/13 06:12:38;;;;;;;16.33;9.30;;;1.60;86.80;;;;;;5095864;28;20761;-80
2022/03/13 06:15:05;;;;;;;16.60;10.20;;;1.60;86.20;;;;;;5093735;28;20188;-78
2022/03/13 06:17:31;;;;;;;15.25;9.38;;;1.70;86.80;;;;;;5094566;28;20706;-78
2022/03/13 06:19:57;;;;;;;14.73;9.02;;;1.70;87.00;;;;;;5092474;28;20226;-78
2022/03/13 06:22:24;;;;;;;21.10;10.10;;;1.70;87.60;;;;;;5092498;28;20328;-79
2022/03/13 06:24:50;;;;;;;16.15;9.88;;;1.60;88.30;;;;;;5093462;28;20185;-79
2022/03/13 06:27:17;;;;;;;15.53;10.20;;;1.60;89.70;;;;;;5105392;28;20603;-76
2022/03/13 06:29:43;;;;;;;14.68;9.57;;;1.80;88.90;;;;;;5092734;28;20460;-77
2022/03/13 06:32:09;;;;;;;17.30;9.77;;;2.40;84.90;;;;;;5104239;28;20260;-77
2022/03/13 06:34:34;;;;;;;18.90;10.60;;;3.10;80.80;;;;;;5107693;28;20420;-77
2022/03/13 06:37:00;;;;;;;17.23;10.87;;;4.00;78.60;;;;;;5108503;28;20216;-78
2022/03/13 06:39:26;;;;;;;20.43;10.50;;;5.00;74.20;;;;;;5108916;28;20217;-77
2022/03/13 06:41:52;;;;;;;15.10;11.10;;;5.70;73.20;;;;;;5107334;28;20481;-77
2022/03/13 06:44:18;;;;;;;23.03;11.00;;;6.40;70.40;;;;;;5101955;28;20420;-77
2022/03/13 06:46:45;;;;;;;24.17;13.63;;;6.90;66.80;;;;;;5100822;28;20780;-77
2022/03/13 06:49:11;;;;;;;29.43;15.47;;;7.30;65.10;;;;;;5084211;28;20479;-77
2022/03/13 06:51:40;;;;;;;36.97;23.93;;;7.60;63.50;;;;;;5101290;28;20918;-77
2022/03/13 06:54:08;;;;;;;49.43;28.60;;;7.80;61.70;;;;;;5099376;28;20512;-76
2022/03/13 06:56:36;;;;;;;27.80;15.73;;;8.10;60.30;;;;;;5097921;28;20440;-77
2022/03/13 06:59:04;;;;;;;23.80;14.70;;;8.20;58.70;;;;;;5101390;28;20412;-77
2022/03/13 07:01:30;;;;;;;22.00;13.87;;;8.10;58.20;;;;;;5107862;28;20408;-77
2022/03/13 07:03:56;;;;;;;24.10;13.37;;;8.40;58.10;;;;;;5112567;28;20421;-77
2022/03/13 07:06:22;;;;;;;24.93;12.30;;;8.50;58.00;;;;;;5111095;28;20437;-78
2022/03/13 07:08:47;;;;;;;22.50;13.97;;;8.50;56.80;;;;;;5112661;28;20216;-77
2022/03/13 07:11:15;;;;;;;22.70;14.30;;;8.50;56.40;;;;;;5095637;28;20186;-78
2022/03/13 07:13:42;;;;;;;25.07;15.43;;;8.60;56.10;;;;;;5112418;28;20214;-77
2022/03/13 07:16:08;;;;;;;26.63;15.60;;;8.60;55.60;;;;;;5091630;28;20447;-79
2022/03/13 07:18:33;;;;;;;22.90;14.80;;;8.70;56.00;;;;;;5083460;28;20431;-77
2022/03/13 07:20:59;;;;;;;25.57;15.43;;;8.80;55.40;;;;;;5092440;28;20275;-77
2022/03/13 07:23:25;;;;;;;25.57;16.27;;;8.80;55.10;;;;;;5094235;28;20219;-78
2022/03/13 07:25:51;;;;;;;26.70;15.73;;;8.70;55.20;;;;;;5075693;28;20270;-78
2022/03/13 07:28:17;;;;;;;28.90;14.60;;;8.80;55.60;;;;;;5094728;28;20799;-78
2022/03/13 07:30:44;;;;;;;28.33;13.83;;;8.80;54.90;;;;;;5093224;28;20463;-77
2022/03/13 07:33:10;;;;;;;25.10;15.63;;;8.80;54.90;;;;;;5097492;28;20453;-80
2022/03/13 07:35:36;;;;;;;25.70;17.03;;;8.90;54.80;;;;;;5095942;28;20795;-79
2022/03/13 07:38:03;;;;;;;32.27;16.20;;;9.10;55.20;;;;;;5097362;28;20426;-80
2022/03/13 07:40:29;;;;;;;25.37;15.50;;;9.20;55.10;;;;;;5097177;28;20532;-79
2022/03/13 07:42:55;;;;;;;24.93;15.73;;;9.50;54.70;;;;;;5097183;28;20464;-79
2022/03/13 07:45:21;;;;;;;23.00;14.43;;;9.50;53.90;;;;;;5097489;28;20433;-79
2022/03/13 07:47:46;;;;;;;28.00;17.53;;;9.80;54.00;;;;;;5098122;28;20640;-79
2022/03/13 07:50:12;;;;;;;35.40;20.63;;;9.90;53.30;;;;;;5079361;28;20472;-79
2022/03/13 07:52:38;;;;;;;27.37;19.90;;;10.10;52.60;;;;;;5098799;28;20195;-79
2022/03/13 07:55:04;;;;;;;26.50;17.07;;;10.00;51.50;;;;;;5097521;28;20604;-79
2022/03/13 07:57:30;;;;;;;24.30;14.80;;;10.00;51.40;;;;;;5096371;28;20191;-78
2022/03/13 07:59:56;;;;;;;21.53;15.17;;;9.70;52.00;;;;;;5096865;28;20437;-79
2022/03/13 08:02:22;;;;;;;27.60;15.93;;;9.60;52.80;;;;;;5096263;28;20203;-78
2022/03/13 08:04:48;;;;;;;23.77;15.67;;;9.60;52.10;;;;;;5094807;28;20267;-78
2022/03/13 08:07:13;;;;;;;25.73;15.77;;;9.60;53.10;;;;;;5099747;28;20454;-77
2022/03/13 08:09:39;;;;;;;28.53;16.43;;;9.50;52.50;;;;;;5103980;28;20206;-76
2022/03/13 08:12:06;;;;;;;22.67;15.77;;;9.60;53.50;;;;;;5091656;28;20213;-79
2022/03/13 08:14:31;;;;;;;26.07;15.90;;;9.80;53.00;;;;;;5093127;28;20199;-79
2022/03/13 08:16:57;;;;;;;23.33;15.07;;;10.10;52.90;;;;;;5093395;28;20829;-79
2022/03/13 08:19:23;;;;;;;25.47;16.17;;;10.50;52.50;;;;;;5094324;28;20749;-78
2022/03/13 08:21:48;;;;;;;24.27;14.97;;;10.90;51.30;;;;;;5089400;28;20183;-78
2022/03/13 08:24:15;;;;;;;20.40;15.03;;;11.20;50.80;;;;;;5089108;28;20469;-78
2022/03/13 08:26:42;;;;;;;23.10;14.83;;;11.40;50.20;;;;;;5094414;28;20201;-78
2022/03/13 08:29:09;;;;;;;25.30;15.50;;;11.60;50.40;;;;;;5100064;28;20525;-76
2022/03/13 08:31:36;;;;;;;25.07;16.13;;;11.80;50.80;;;;;;5084721;28;20439;-77
2022/03/13 08:34:10;;;;;;;23.57;15.50;;;12.30;49.50;;;;;;5102560;28;20472;-76
2022/03/13 08:36:40;;;;;;;26.40;15.83;;;12.70;49.20;;;;;;5100002;28;20900;-76
2022/03/13 08:39:06;;;;;;;25.47;15.50;;;12.80;48.70;;;;;;5101749;28;20421;-77
2022/03/13 08:41:33;;;;;;;23.30;15.90;;;12.90;46.40;;;;;;5101470;28;20455;-77
2022/03/13 08:43:59;;;;;;;22.20;15.30;;;13.20;47.10;;;;;;5101996;28;20426;-77
2022/03/13 08:46:25;;;;;;;24.60;15.20;;;13.30;45.00;;;;;;5103705;28;20431;-77
2022/03/13 08:48:50;;;;;;;23.17;16.27;;;13.30;45.20;;;;;;5102843;28;20190;-77
2022/03/13 08:51:18;;;;;;;27.27;16.43;;;13.60;45.30;;;;;;5105735;28;20431;-78
2022/03/13 08:53:44;;;;;;;24.33;15.67;;;14.20;45.20;;;;;;5112714;28;20204;-77
2022/03/13 08:56:13;;;;;;;24.13;16.07;;;14.70;44.10;;;;;;5105156;28;20540;-77
2022/03/13 08:58:42;;;;;;;24.60;15.90;;;15.00;44.50;;;;;;5108637;28;20412;-77
2022/03/13 09:01:08;;;;;;;27.83;16.33;;;15.00;43.40;;;;;;5110365;28;20415;-77
2022/03/13 09:03:34;;;;;;;26.03;15.90;;;15.60;42.50;;;;;;5091767;28;20466;-77
2022/03/13 09:06:00;;;;;;;30.60;16.67;;;15.90;41.20;;;;;;5109888;28;20415;-77
2022/03/13 09:08:25;;;;;;;22.60;16.20;;;16.20;40.30;;;;;;5112813;28;20228;-75
2022/03/13 09:10:52;;;;;;;20.97;15.20;;;16.20;40.30;;;;;;5095956;28;20226;-77
2022/03/13 09:13:20;;;;;;;26.97;16.57;;;16.30;40.50;;;;;;5092140;28;20203;-76
2022/03/13 09:15:46;;;;;;;27.50;17.50;;;16.60;40.60;;;;;;5093118;28;20456;-79
2022/03/13 09:18:13;;;;;;;23.07;15.33;;;17.10;40.10;;;;;;5091548;28;20424;-78
2022/03/13 09:20:39;;;;;;;27.53;16.63;;;17.50;39.70;;;;;;5091058;28;20519;-77
2022/03/13 09:23:08;;;;;;;27.57;17.00;;;17.70;40.00;;;;;;5093503;28;20445;-78
2022/03/13 09:25:35;;;;;;;25.07;16.57;;;18.20;39.10;;;;;;5093104;28;20425;-78
2022/03/13 09:28:02;;;;;;;23.10;16.57;;;18.40;38.10;;;;;;5090869;28;20433;-79
2022/03/13 09:30:28;;;;;;;25.60;16.13;;;18.40;38.90;;;;;;5092371;28;20477;-77
2022/03/13 09:32:54;;;;;;;23.17;17.53;;;19.10;38.50;;;;;;5090824;28;20440;-78
2022/03/13 09:35:19;;;;;;;21.93;16.00;;;19.20;36.50;;;;;;5073145;28;20187;-77
2022/03/13 09:37:46;;;;;;;23.80;17.30;;;19.30;37.00;;;;;;5073215;28;20190;-78
2022/03/13 09:40:13;;;;;;;24.40;16.80;;;19.00;36.60;;;;;;5091782;28;20188;-77
2022/03/13 09:42:39;;;;;;;22.13;17.27;;;19.20;36.80;;;;;;5090767;28;20460;-78
2022/03/13 09:45:06;;;;;;;36.77;18.37;;;19.20;37.50;;;;;;5091448;28;20425;-79
2022/03/13 09:47:32;;;;;;;23.60;16.07;;;19.60;36.00;;;;;;5091183;28;20614;-77
2022/03/13 09:49:57;;;;;;;24.03;17.27;;;19.70;34.90;;;;;;5072239;28;20500;-79
2022/03/13 09:52:23;;;;;;;23.00;17.07;;;19.70;35.00;;;;;;5089338;28;20953;-78
2022/03/13 09:54:49;;;;;;;23.40;16.60;;;19.70;35.00;;;;;;5091377;28;20196;-78
2022/03/13 09:57:14;;;;;;;22.83;15.93;;;19.80;35.60;;;;;;5091379;28;20715;-77
2022/03/13 09:59:43;;;;;;;30.17;16.90;;;20.10;35.50;;;;;;5089655;28;20186;-76
2022/03/13 10:02:09;;;;;;;28.10;17.73;;;20.20;34.30;;;;;;5073178;28;20298;-76
2022/03/13 10:04:35;;;;;;;27.90;17.43;;;20.30;34.90;;;;;;5090509;28;20978;-79
2022/03/13 10:07:07;;;;;;;23.03;16.47;;;20.30;35.90;;;;;;5072187;28;20437;-77
2022/03/13 10:09:34;;;;;;;22.87;15.93;;;20.70;33.40;;;;;;5092490;28;20463;-79
2022/03/13 10:12:09;;;;;;;22.63;16.60;;;20.80;34.30;;;;;;5074487;28;20452;-77
2022/03/13 10:14:53;;;;;;;23.20;18.10;;;20.90;35.00;;;;;;5090457;28;20497;-77
2022/03/13 10:17:33;;;;;;;22.80;16.43;;;20.90;34.20;;;;;;5089072;28;20789;-79
2022/03/13 10:20:20;;;;;;;26.17;17.27;;;20.70;34.20;;;;;;5087945;28;20523;-78
2022/03/13 10:23:16;;;;;;;26.30;16.93;;;20.90;33.50;;;;;;5090749;28;20448;-78
2022/03/13 10:25:43;;;;;;;24.93;17.10;;;21.20;32.80;;;;;;5089113;28;20434;-79
2022/03/13 10:28:18;;;;;;;24.87;16.53;;;21.30;33.20;;;;;;5088627;28;20541;-79
2022/03/13 10:31:03;;;;;;;22.33;15.10;;;20.90;33.60;;;;;;5088463;28;20463;-77
2022/03/13 10:33:48;;;;;;;19.90;14.73;;;20.70;34.00;;;;;;5089879;28;20496;-78
2022/03/13 10:36:17;;;;;;;24.83;17.97;;;21.40;31.90;;;;;;5090070;28;20438;-79
2022/03/13 10:38:44;;;;;;;24.00;16.73;;;21.20;32.10;;;;;;5089951;28;20941;-77
2022/03/13 10:41:12;;;;;;;23.00;16.30;;;21.60;34.20;;;;;;5089834;28;20420;-80
2022/03/13 10:43:58;;;;;;;25.20;16.90;;;21.70;33.40;;;;;;5088485;28;20439;-76
2022/03/13 10:46:26;;;;;;;20.50;16.07;;;21.40;33.30;;;;;;5089328;28;20456;-79
2022/03/13 10:48:53;;;;;;;20.97;16.90;;;21.20;33.50;;;;;;5087652;28;20416;-78
2022/03/13 10:51:48;;;;;;;23.33;16.53;;;21.70;33.00;;;;;;5087601;28;20439;-78
2022/03/13 10:54:32;;;;;;;23.00;17.20;;;21.50;32.90;;;;;;5087884;28;20885;-77
2022/03/13 10:57:11;;;;;;;23.07;17.20;;;21.40;32.30;;;;;;5087766;28;20527;-80
2022/03/13 10:59:40;;;;;;;24.30;18.60;;;21.30;31.50;;;;;;5089664;28;20506;-79
2022/03/13 11:02:12;;;;;;;28.20;16.40;;;21.10;32.00;;;;;;5090020;28;20454;-82
2022/03/13 11:04:46;;;;;;;23.60;17.17;;;21.90;33.00;;;;;;5087455;28;20439;-80
2022/03/13 11:07:12;;;;;;;27.03;16.53;;;22.10;32.80;;;;;;5090291;28;20423;-80
2022/03/13 11:09:38;;;;;;;26.43;17.63;;;22.30;32.70;;;;;;5086961;28;20474;-78
2022/03/13 11:12:10;;;;;;;30.97;17.90;;;22.10;32.90;;;;;;5087237;28;20529;-79
2022/03/13 11:14:36;;;;;;;23.70;16.80;;;22.30;32.60;;;;;;5089108;28;20178;-78
2022/03/13 11:17:02;;;;;;;27.80;18.27;;;22.20;31.80;;;;;;5088857;28;20423;-77
2022/03/13 11:19:29;;;;;;;23.27;17.90;;;22.00;32.30;;;;;;5088328;28;20187;-77
2022/03/13 11:21:55;;;;;;;22.10;16.50;;;22.00;31.90;;;;;;5086633;28;20532;-79
2022/03/13 11:24:23;;;;;;;20.27;16.63;;;22.10;31.70;;;;;;5088556;28;20518;-78
2022/03/13 11:26:51;;;;;;;29.33;18.70;;;22.40;32.20;;;;;;5088804;28;20430;-79
2022/03/13 11:29:40;;;;;;;22.57;17.17;;;22.30;31.60;;;;;;5088599;28;20464;-78
2022/03/13 11:32:33;;;;;;;22.23;17.90;;;22.40;31.90;;;;;;5088088;28;20447;-82
2022/03/13 11:35:11;;;;;;;23.97;18.07;;;22.30;32.20;;;;;;5089594;28;20799;-76
2022/03/13 11:37:38;;;;;;;27.30;18.60;;;22.30;32.20;;;;;;5087585;28;20499;-78
2022/03/13 11:40:05;;;;;;;22.40;17.07;;;22.20;33.10;;;;;;5088649;28;20419;-78
2022/03/13 11:42:51;;;;;;;26.03;18.13;;;21.80;33.00;;;;;;5070169;28;20536;-77
2022/03/13 11:45:35;;;;;;;26.10;18.80;;;22.00;32.00;;;;;;5088649;28;20438;-79
2022/03/13 11:48:14;;;;;;;25.10;17.37;;;22.70;32.60;;;;;;5088099;28;20767;-78
2022/03/13 11:50:58;;;;;;;31.67;19.03;;;22.20;32.20;;;;;;5087776;28;20532;-79
2022/03/13 11:53:37;;;;;;;26.10;18.00;;;21.50;32.50;;;;;;5086031;28;20463;-78
2022/03/13 11:56:05;;;;;;;24.67;17.20;;;21.10;34.00;;;;;;5087686;28;20504;-78
2022/03/13 11:58:48;;;;;;;26.90;19.67;;;20.70;33.40;;;;;;5087522;28;20433;-78
2022/03/13 12:01:23;;;;;;;25.20;18.60;;;20.70;34.00;;;;;;5087773;28;20499;-77
2022/03/13 12:04:01;;;;;;;23.60;17.40;;;20.50;34.10;;;;;;5088315;28;21026;-78
2022/03/13 12:06:48;;;;;;;22.93;17.17;;;20.40;34.90;;;;;;5088023;28;20419;-78
2022/03/13 12:09:28;;;;;;;28.77;19.20;;;20.30;35.20;;;;;;5087737;28;20512;-78
2022/03/13 12:12:01;;;;;;;25.37;17.70;;;20.20;35.10;;;;;;5087461;28;20432;-77
2022/03/13 12:14:55;;;;;;;27.30;20.13;;;20.20;35.20;;;;;;5087162;28;20894;-77
2022/03/13 12:17:25;;;;;;;27.07;20.07;;;20.10;35.00;;;;;;5085858;28;20511;-79
2022/03/13 12:19:53;;;;;;;32.37;18.33;;;20.20;35.10;;;;;;5088242;28;20423;-78
2022/03/13 12:22:22;;;;;;;31.97;19.63;;;19.80;34.00;;;;;;5086112;28;20450;-76
2022/03/13 12:24:50;;;;;;;27.57;19.87;;;19.70;34.40;;;;;;5069920;28;20525;-78
2022/03/13 12:27:16;;;;;;;28.00;19.97;;;19.40;35.10;;;;;;5087844;28;20987;-78
2022/03/13 12:29:47;;;;;;;26.47;18.53;;;19.40;35.70;;;;;;5069612;28;20531;-78
2022/03/13 12:32:13;;;;;;;30.43;20.10;;;19.50;35.60;;;;;;5087823;28;20516;-78
2022/03/13 12:34:41;;;;;;;29.13;18.60;;;19.70;36.10;;;;;;5088145;28;20519;-78
2022/03/13 12:37:09;;;;;;;25.90;18.57;;;19.50;35.10;;;;;;5087701;28;20180;-79
2022/03/13 12:39:47;;;;;;;28.83;20.70;;;19.60;35.40;;;;;;5086146;28;20425;-78
2022/03/13 12:42:12;;;;;;;27.60;19.60;;;19.50;35.80;;;;;;5085863;28;20915;-79
2022/03/13 12:44:38;;;;;;;29.47;19.00;;;19.50;35.30;;;;;;5090605;28;20474;-79